Accueil
METAR-TAF:

METAR-TAF

Aéroports :

Aéroport international de Bergame-Orio al Serio (Le Caravage)

Bergame, Italie

latitude: 45-40N, longitude: 009-42E, altitude: 238 m

Observation

Le bulletin a été fait il y a 24 minutes, à 20:50 UTC
Vent 5 kt de nord
Température 22°C
Humidité 69%
Pression 1016 hPa
Visibilité 10 km ou plus
Quelques nuages à une hauteur de 9000 ft

METAR: LIME 162050Z 01005KT 9999 FEW090 22/16 Q1016 NOSIG

Heure: 23:14 (21:14 UTC)

Prévision

Le bulletin a été fait il y a 4 heures et 14 minutes, à 17:00 UTC
Prévision valable du 16 à 18 UTC au 17 à 18 UTC
Vent 5 kt de direction variable
Visibilité 10 km ou plus
Nuages épars à une hauteur de 6000 ft

TAF: LIME 161700Z 1618/1718 VRB05KT 9999 SCT060

Observations et prévisions météorologiques de plus de 4000 aéroports (messages METAR et TAF).

Les stations disponibles sont représentées par des disques jaunes et rouges sur la carte.

Passer la souris dessus pour voir le nom de la station.

Cliquer dessus pour voir les observations et prévisions météorologiques.

Pour changer de carte: cliquez sur les boutons verts avec une croix noire pour zoomer, sur le bouton vert avec un tiret pour effectuer un zoom arrière, ou sur les flèches vertes pour les cartes adjacentes.


METAR-TAF: